Time;durP1;ratioP1;P1;durP2;ratioP2;P2;SDS_P1;SDS_P2;PMS_P1;PMS_P2;Temp;Humidity;BMP_temperature;BMP_pressure;BME280_temperature;BME280_humidity;BME280_pressure;Samples;Min_cycle;Max_cycle;Signal;HPM_P1;HPM_P2
2024/03/07 00:02:10;;;;;;;28.20;21.17;;;;;;;;;;5077871;28;20454;-68
2024/03/07 00:04:37;;;;;;;25.73;19.63;;;;;;;;;;5072146;28;20506;-68
2024/03/07 00:07:05;;;;;;;25.77;20.53;;;;;;;;;;5078552;28;20462;-69
2024/03/07 00:09:32;;;;;;;25.50;20.13;;;;;;;;;;5075629;28;20467;-68
2024/03/07 00:11:59;;;;;;;25.63;21.17;;;;;;;;;;5084469;28;20476;-69
2024/03/07 00:14:26;;;;;;;25.97;20.50;;;;;;;;;;5077622;28;20483;-69
2024/03/07 00:16:53;;;;;;;25.40;21.00;;;;;;;;;;5077146;28;20443;-69
2024/03/07 00:19:19;;;;;;;34.20;20.03;;;;;;;;;;5083721;28;20444;-69
2024/03/07 00:21:46;;;;;;;29.20;21.50;;;;;;;;;;5079817;28;20517;-69
2024/03/07 00:24:14;;;;;;;23.77;20.30;;;;;;;;;;5085998;28;20482;-68
2024/03/07 00:26:41;;;;;;;29.97;20.67;;;;;;;;;;5083369;28;20447;-68
2024/03/07 00:29:07;;;;;;;28.07;19.90;;;;;;;;;;5082702;28;20543;-68
2024/03/07 00:31:34;;;;;;;26.70;20.47;;;;;;;;;;5080178;28;21332;-68
2024/03/07 00:34:00;;;;;;;24.63;20.50;;;;;;;;;;5082623;28;20551;-68
2024/03/07 00:36:27;;;;;;;27.00;21.73;;;;;;;;;;5078399;28;20488;-68
2024/03/07 00:38:53;;;;;;;28.50;21.73;;;;;;;;;;5079198;28;20460;-68
2024/03/07 00:41:21;;;;;;;33.97;23.50;;;;;;;;;;5082263;28;20451;-68
2024/03/07 00:43:48;;;;;;;26.23;20.20;;;;;;;;;;5081487;28;20527;-68
2024/03/07 00:46:14;;;;;;;29.70;22.07;;;;;;;;;;5081489;28;20501;-68
2024/03/07 00:48:40;;;;;;;29.30;21.70;;;;;;;;;;5077183;28;20494;-68
2024/03/07 00:51:08;;;;;;;27.10;19.90;;;;;;;;;;5081316;28;20463;-68
2024/03/07 00:53:35;;;;;;;27.43;21.10;;;;;;;;;;5083558;28;21008;-68
2024/03/07 00:56:02;;;;;;;29.83;21.80;;;;;;;;;;5084337;28;20441;-68
2024/03/07 00:58:30;;;;;;;28.23;21.70;;;;;;;;;;5068281;28;20741;-68
2024/03/07 01:00:57;;;;;;;29.97;23.00;;;;;;;;;;5062063;28;20451;-67
2024/03/07 01:03:24;;;;;;;29.77;22.17;;;;;;;;;;5067169;28;20446;-68
2024/03/07 01:05:50;;;;;;;29.33;22.17;;;;;;;;;;5069976;28;20459;-68
2024/03/07 01:08:17;;;;;;;27.10;20.87;;;;;;;;;;5070268;28;20532;-68
2024/03/07 01:10:43;;;;;;;25.70;20.10;;;;;;;;;;5065586;28;20495;-68
2024/03/07 01:13:18;;;;;;;29.50;20.80;;;;;;;;;;5056031;28;20834;-68
2024/03/07 01:15:46;;;;;;;27.00;21.10;;;;;;;;;;5061989;28;20457;-67
2024/03/07 01:18:13;;;;;;;27.70;21.93;;;;;;;;;;5063684;28;20453;-67
2024/03/07 01:20:39;;;;;;;29.17;22.50;;;;;;;;;;5067643;28;20464;-67
2024/03/07 01:23:07;;;;;;;28.30;22.17;;;;;;;;;;5063202;28;20867;-67
2024/03/07 01:25:34;;;;;;;28.03;21.43;;;;;;;;;;5066467;28;20448;-67
2024/03/07 01:28:00;;;;;;;26.57;22.27;;;;;;;;;;5063604;28;20555;-67
2024/03/07 01:30:28;;;;;;;31.90;22.87;;;;;;;;;;5060904;28;20513;-68
2024/03/07 01:32:55;;;;;;;29.83;23.47;;;;;;;;;;5066177;28;20508;-68
2024/03/07 01:35:22;;;;;;;33.03;22.40;;;;;;;;;;5067657;28;20456;-69
2024/03/07 01:37:48;;;;;;;30.23;23.03;;;;;;;;;;5060108;28;20510;-68
2024/03/07 01:40:15;;;;;;;31.33;23.20;;;;;;;;;;5067008;28;20488;-68
2024/03/07 01:42:41;;;;;;;29.10;23.30;;;;;;;;;;5070139;28;20456;-68
2024/03/07 01:45:09;;;;;;;35.43;23.87;;;;;;;;;;5059338;28;20505;-68
2024/03/07 01:47:36;;;;;;;35.43;23.30;;;;;;;;;;5057971;28;20544;-68
2024/03/07 01:50:04;;;;;;;34.57;24.70;;;;;;;;;;5063757;28;20452;-68
2024/03/07 01:52:32;;;;;;;34.80;22.90;;;;;;;;;;5065403;28;20472;-68
2024/03/07 01:54:58;;;;;;;36.43;23.00;;;;;;;;;;5066199;28;20576;-68
2024/03/07 01:57:25;;;;;;;41.90;22.40;;;;;;;;;;5066058;28;20483;-68
2024/03/07 01:59:52;;;;;;;30.90;23.33;;;;;;;;;;5078674;28;20953;-68
2024/03/07 02:02:18;;;;;;;30.93;23.27;;;;;;;;;;5078344;28;20515;-68
2024/03/07 02:04:45;;;;;;;33.30;23.73;;;;;;;;;;5075739;28;20483;-68
2024/03/07 02:07:13;;;;;;;33.90;23.70;;;;;;;;;;5075902;28;20456;-68
2024/03/07 02:09:38;;;;;;;32.33;22.57;;;;;;;;;;5076066;28;20975;-68
2024/03/07 02:12:05;;;;;;;29.50;23.40;;;;;;;;;;5076467;28;20448;-68
2024/03/07 02:14:31;;;;;;;32.50;23.00;;;;;;;;;;5080061;28;20222;-68
2024/03/07 02:16:58;;;;;;;32.87;23.40;;;;;;;;;;5074614;28;20484;-68
2024/03/07 02:19:24;;;;;;;33.47;23.60;;;;;;;;;;5081465;27;20522;-68
2024/03/07 02:21:52;;;;;;;34.07;24.80;;;;;;;;;;5078346;28;20547;-68
2024/03/07 02:24:18;;;;;;;30.97;23.07;;;;;;;;;;5077101;28;21009;-67
2024/03/07 02:26:45;;;;;;;33.27;24.83;;;;;;;;;;5075260;28;20448;-68
2024/03/07 02:29:11;;;;;;;34.50;23.60;;;;;;;;;;5077484;28;20467;-67
2024/03/07 02:31:41;;;;;;;36.70;24.77;;;;;;;;;;5079101;28;20442;-68
2024/03/07 02:34:08;;;;;;;36.47;26.00;;;;;;;;;;5075018;28;20555;-67
2024/03/07 02:36:34;;;;;;;37.33;26.63;;;;;;;;;;5072304;28;20488;-67
2024/03/07 02:39:02;;;;;;;37.47;27.67;;;;;;;;;;5074414;28;20479;-67
2024/03/07 02:41:29;;;;;;;35.30;25.53;;;;;;;;;;5079296;28;20491;-67
2024/03/07 02:43:55;;;;;;;37.30;25.87;;;;;;;;;;5081272;28;20952;-69
2024/03/07 02:46:22;;;;;;;37.63;26.23;;;;;;;;;;5079306;28;20543;-67
2024/03/07 02:48:47;;;;;;;38.87;26.43;;;;;;;;;;5085495;28;20493;-67
2024/03/07 02:51:14;;;;;;;37.87;26.80;;;;;;;;;;5080793;28;20452;-68
2024/03/07 02:53:40;;;;;;;36.60;28.67;;;;;;;;;;5078219;28;20287;-67
2024/03/07 02:56:09;;;;;;;37.93;30.50;;;;;;;;;;5076460;28;20480;-67
2024/03/07 02:58:36;;;;;;;37.33;30.37;;;;;;;;;;5057961;28;20527;-67
2024/03/07 03:01:03;;;;;;;43.03;28.63;;;;;;;;;;5066150;28;20453;-67
2024/03/07 03:03:31;;;;;;;34.73;27.97;;;;;;;;;;5056152;28;20449;-66
2024/03/07 03:05:57;;;;;;;38.77;28.40;;;;;;;;;;5059542;28;20461;-67
2024/03/07 03:08:24;;;;;;;35.83;26.47;;;;;;;;;;5057491;28;20542;-67
2024/03/07 03:10:51;;;;;;;34.60;23.87;;;;;;;;;;5055704;28;20491;-67
2024/03/07 03:13:19;;;;;;;38.20;27.30;;;;;;;;;;5056729;28;21017;-67
2024/03/07 03:15:45;;;;;;;39.20;25.93;;;;;;;;;;5055928;28;20480;-67
2024/03/07 03:18:12;;;;;;;39.60;28.13;;;;;;;;;;5059243;28;20489;-67
2024/03/07 03:20:39;;;;;;;38.23;27.70;;;;;;;;;;5057566;28;20800;-67
2024/03/07 03:23:06;;;;;;;36.17;27.00;;;;;;;;;;5064434;28;20526;-66
2024/03/07 03:25:34;;;;;;;38.13;28.30;;;;;;;;;;5057316;28;20448;-67
2024/03/07 03:28:01;;;;;;;38.87;27.00;;;;;;;;;;5056729;28;20944;-67
2024/03/07 03:30:28;;;;;;;37.47;29.70;;;;;;;;;;5056814;28;20457;-68
2024/03/07 03:32:55;;;;;;;36.10;27.00;;;;;;;;;;5065173;28;20487;-68
2024/03/07 03:35:21;;;;;;;38.53;27.83;;;;;;;;;;5055648;28;20588;-68
2024/03/07 03:37:48;;;;;;;41.50;29.20;;;;;;;;;;5052399;28;20485;-68
2024/03/07 03:40:14;;;;;;;40.60;26.47;;;;;;;;;;5055649;28;20483;-68
2024/03/07 03:42:41;;;;;;;39.60;27.10;;;;;;;;;;5057247;28;20455;-69
2024/03/07 03:45:09;;;;;;;37.60;27.40;;;;;;;;;;5061341;28;20440;-69
2024/03/07 03:47:37;;;;;;;33.57;25.73;;;;;;;;;;5060200;28;20946;-68
2024/03/07 03:50:04;;;;;;;36.70;26.37;;;;;;;;;;5060574;28;20509;-68
2024/03/07 03:52:31;;;;;;;36.57;27.40;;;;;;;;;;5060358;28;20975;-69
2024/03/07 03:54:58;;;;;;;42.50;27.97;;;;;;;;;;5060770;28;20481;-69
2024/03/07 03:57:24;;;;;;;41.27;27.40;;;;;;;;;;5068629;28;20487;-69
2024/03/07 03:59:51;;;;;;;40.17;27.37;;;;;;;;;;5078306;28;20476;-68
2024/03/07 04:02:17;;;;;;;36.67;26.20;;;;;;;;;;5085373;28;20467;-68
2024/03/07 04:04:48;;;;;;;40.13;28.80;;;;;;;;;;5085019;28;20506;-69
2024/03/07 04:07:15;;;;;;;35.07;27.67;;;;;;;;;;5082503;28;20478;-68
2024/03/07 04:09:42;;;;;;;39.70;27.73;;;;;;;;;;5083022;28;20460;-68
2024/03/07 04:12:10;;;;;;;42.80;27.97;;;;;;;;;;5079242;28;20447;-69
2024/03/07 04:14:36;;;;;;;39.07;27.67;;;;;;;;;;5080143;28;20566;-68
2024/03/07 04:17:03;;;;;;;37.43;26.73;;;;;;;;;;5080130;28;20471;-68
2024/03/07 04:19:30;;;;;;;33.60;26.20;;;;;;;;;;5082807;28;20488;-68
2024/03/07 04:21:58;;;;;;;36.20;26.40;;;;;;;;;;5080246;28;20509;-68
2024/03/07 04:24:25;;;;;;;32.53;25.43;;;;;;;;;;5084499;28;20508;-68
2024/03/07 04:26:53;;;;;;;34.70;26.57;;;;;;;;;;5079176;28;20462;-68
2024/03/07 04:29:19;;;;;;;36.47;26.80;;;;;;;;;;5075909;28;20460;-69
2024/03/07 04:31:46;;;;;;;36.67;26.20;;;;;;;;;;5082846;28;20452;-68
2024/03/07 04:34:12;;;;;;;36.80;25.37;;;;;;;;;;5083328;28;20984;-68
2024/03/07 04:36:39;;;;;;;33.57;24.50;;;;;;;;;;5080902;28;20460;-69
2024/03/07 04:39:14;;;;;;;38.90;25.70;;;;;;;;;;5080802;28;20455;-69
2024/03/07 04:41:41;;;;;;;39.00;26.87;;;;;;;;;;5078565;28;20555;-68
2024/03/07 04:44:07;;;;;;;39.60;26.80;;;;;;;;;;5081761;28;20554;-68
2024/03/07 04:46:33;;;;;;;38.80;26.07;;;;;;;;;;5077106;28;21038;-66
2024/03/07 04:49:00;;;;;;;34.23;26.80;;;;;;;;;;5078528;28;20495;-68
2024/03/07 04:51:26;;;;;;;37.53;27.20;;;;;;;;;;5078083;28;20506;-68
2024/03/07 04:53:53;;;;;;;39.83;29.10;;;;;;;;;;5080253;28;20454;-68
2024/03/07 04:56:20;;;;;;;39.40;27.90;;;;;;;;;;5075095;28;20456;-67
2024/03/07 04:58:49;;;;;;;44.37;27.60;;;;;;;;;;5077195;28;20522;-67
2024/03/07 05:01:16;;;;;;;41.30;28.07;;;;;;;;;;5075331;28;20465;-68
2024/03/07 05:03:42;;;;;;;42.30;29.23;;;;;;;;;;5079361;28;20459;-68
2024/03/07 05:06:08;;;;;;;35.53;27.43;;;;;;;;;;5077683;28;20459;-68
2024/03/07 05:08:35;;;;;;;40.03;27.90;;;;;;;;;;5079152;28;20486;-68
2024/03/07 05:11:01;;;;;;;41.20;28.70;;;;;;;;;;5076533;28;20452;-68
2024/03/07 05:13:29;;;;;;;36.53;26.50;;;;;;;;;;5069734;28;20477;-67
2024/03/07 05:15:55;;;;;;;40.77;28.37;;;;;;;;;;5074152;28;20527;-68
2024/03/07 05:18:22;;;;;;;39.03;29.23;;;;;;;;;;5075205;28;20941;-68
2024/03/07 05:20:48;;;;;;;40.33;27.03;;;;;;;;;;5076571;28;20495;-68
2024/03/07 05:23:15;;;;;;;39.00;28.10;;;;;;;;;;5074139;28;20451;-68
2024/03/07 05:25:42;;;;;;;36.97;28.00;;;;;;;;;;5082680;28;20494;-68
2024/03/07 05:28:08;;;;;;;36.53;28.93;;;;;;;;;;5082658;28;20475;-68
2024/03/07 05:30:36;;;;;;;39.00;26.10;;;;;;;;;;5084389;28;20486;-68
2024/03/07 05:33:03;;;;;;;36.77;27.27;;;;;;;;;;5076849;28;20479;-68
2024/03/07 05:35:29;;;;;;;35.47;26.33;;;;;;;;;;5077087;28;20487;-68
2024/03/07 05:37:57;;;;;;;40.93;27.77;;;;;;;;;;5078118;28;20459;-68
2024/03/07 05:40:24;;;;;;;30.57;24.70;;;;;;;;;;5077708;28;20448;-68
2024/03/07 05:42:50;;;;;;;32.17;25.43;;;;;;;;;;5078085;28;20491;-68
2024/03/07 05:45:18;;;;;;;34.97;24.97;;;;;;;;;;5077781;28;20456;-68
2024/03/07 05:47:47;;;;;;;34.23;25.57;;;;;;;;;;5071447;28;20538;-68
2024/03/07 05:50:13;;;;;;;37.47;27.80;;;;;;;;;;5077334;28;20483;-68
2024/03/07 05:52:40;;;;;;;37.40;27.30;;;;;;;;;;5079838;28;20460;-68
2024/03/07 05:55:07;;;;;;;30.83;25.10;;;;;;;;;;5078052;28;20480;-68
2024/03/07 05:57:33;;;;;;;37.37;26.73;;;;;;;;;;5079369;28;20498;-68
2024/03/07 06:00:00;;;;;;;37.37;27.13;;;;;;;;;;5078625;28;20486;-68
2024/03/07 06:02:27;;;;;;;38.03;28.07;;;;;;;;;;5080173;28;20488;-68
2024/03/07 06:04:55;;;;;;;39.80;27.10;;;;;;;;;;5077784;28;20444;-68
2024/03/07 06:07:21;;;;;;;38.33;29.03;;;;;;;;;;5072801;28;21034;-67
2024/03/07 06:09:50;;;;;;;42.60;28.30;;;;;;;;;;5076326;28;20440;-68
2024/03/07 06:12:16;;;;;;;35.10;27.57;;;;;;;;;;5074840;28;20448;-72
2024/03/07 06:14:43;;;;;;;37.40;27.87;;;;;;;;;;5077626;28;20476;-68
2024/03/07 06:17:10;;;;;;;37.40;27.20;;;;;;;;;;5076522;28;20857;-68
2024/03/07 06:19:37;;;;;;;37.30;27.97;;;;;;;;;;5065170;28;20513;-68
2024/03/07 06:22:08;;;;;;;35.00;27.53;;;;;;;;;;5077129;28;20957;-68
2024/03/07 06:24:35;;;;;;;35.57;27.93;;;;;;;;;;5076879;28;20536;-68
2024/03/07 06:27:03;;;;;;;38.83;29.90;;;;;;;;;;5076080;28;20467;-68
2024/03/07 06:29:30;;;;;;;35.30;28.03;;;;;;;;;;5077346;28;20452;-68
2024/03/07 06:31:57;;;;;;;38.93;29.80;;;;;;;;;;5076894;28;20468;-68
2024/03/07 06:34:23;;;;;;;41.83;30.03;;;;;;;;;;5076880;28;20823;-68
2024/03/07 06:36:50;;;;;;;39.00;29.87;;;;;;;;;;5072614;28;20528;-68
2024/03/07 06:39:21;;;;;;;37.57;27.37;;;;;;;;;;5075272;28;20483;-68
2024/03/07 06:41:48;;;;;;;41.60;29.37;;;;;;;;;;5076724;28;20901;-67
2024/03/07 06:44:14;;;;;;;42.93;29.77;;;;;;;;;;5076486;28;20458;-68
2024/03/07 06:46:41;;;;;;;36.43;28.30;;;;;;;;;;5068435;28;20476;-68
2024/03/07 06:49:10;;;;;;;37.90;28.33;;;;;;;;;;5073028;28;20449;-68
2024/03/07 06:51:36;;;;;;;39.73;30.40;;;;;;;;;;5074047;28;20546;-68
2024/03/07 06:54:02;;;;;;;44.90;30.10;;;;;;;;;;5079197;28;20478;-68
2024/03/07 06:56:30;;;;;;;39.70;28.03;;;;;;;;;;5077528;28;20554;-68
2024/03/07 06:58:58;;;;;;;38.83;27.83;;;;;;;;;;5077284;28;20458;-69
2024/03/07 07:01:24;;;;;;;42.60;28.97;;;;;;;;;;5076059;28;20531;-68
2024/03/07 07:03:50;;;;;;;37.87;27.60;;;;;;;;;;5074943;28;20460;-68
2024/03/07 07:06:17;;;;;;;36.80;28.30;;;;;;;;;;5073321;28;20500;-68
2024/03/07 07:08:45;;;;;;;37.47;25.77;;;;;;;;;;5074980;28;20519;-67
2024/03/07 07:11:12;;;;;;;38.63;25.60;;;;;;;;;;5075024;28;20443;-68
2024/03/07 07:13:39;;;;;;;41.33;26.53;;;;;;;;;;5075771;28;20452;-68
2024/03/07 07:16:07;;;;;;;33.40;25.17;;;;;;;;;;5070107;28;20547;-67
2024/03/07 07:18:35;;;;;;;38.13;24.37;;;;;;;;;;5080037;28;20483;-67
2024/03/07 07:21:02;;;;;;;34.67;25.87;;;;;;;;;;5079526;28;20459;-67
2024/03/07 07:23:29;;;;;;;39.93;26.40;;;;;;;;;;5076394;28;20525;-66
2024/03/07 07:25:55;;;;;;;30.10;23.63;;;;;;;;;;5073601;28;20443;-67
2024/03/07 07:28:22;;;;;;;31.77;22.73;;;;;;;;;;5077542;28;20486;-66
2024/03/07 07:30:50;;;;;;;34.73;24.80;;;;;;;;;;5076810;28;20494;-66
2024/03/07 07:33:16;;;;;;;29.03;23.20;;;;;;;;;;5071444;28;20461;-68
2024/03/07 07:35:43;;;;;;;33.10;24.73;;;;;;;;;;5075604;28;20488;-68
2024/03/07 07:38:10;;;;;;;34.87;25.50;;;;;;;;;;5075782;28;20482;-68
2024/03/07 07:40:37;;;;;;;34.63;25.77;;;;;;;;;;5081746;28;20550;-67
2024/03/07 07:43:03;;;;;;;30.50;25.00;;;;;;;;;;5066478;28;20452;-68
2024/03/07 07:45:32;;;;;;;35.47;25.00;;;;;;;;;;5068001;28;20876;-68
2024/03/07 07:48:00;;;;;;;35.37;26.30;;;;;;;;;;5075385;28;20559;-68
2024/03/07 07:50:26;;;;;;;34.17;23.87;;;;;;;;;;5075080;28;20447;-68
2024/03/07 07:52:54;;;;;;;35.97;27.53;;;;;;;;;;5075365;28;20464;-68
2024/03/07 07:55:21;;;;;;;40.83;25.87;;;;;;;;;;5070742;28;20908;-66
2024/03/07 07:57:48;;;;;;;38.20;25.90;;;;;;;;;;5075568;28;20498;-67
2024/03/07 08:00:21;;;;;;;39.20;25.70;;;;;;;;;;5076033;28;20486;-65
2024/03/07 08:02:49;;;;;;;40.50;27.90;;;;;;;;;;5076252;28;20495;-66
2024/03/07 08:05:17;;;;;;;38.70;26.53;;;;;;;;;;5079206;28;20456;-66
2024/03/07 08:07:44;;;;;;;40.80;27.43;;;;;;;;;;5076335;28;20467;-67
2024/03/07 08:10:10;;;;;;;38.43;26.60;;;;;;;;;;5076880;28;20463;-66
2024/03/07 08:12:37;;;;;;;36.13;26.37;;;;;;;;;;5070241;28;20933;-65
2024/03/07 08:15:04;;;;;;;38.50;25.80;;;;;;;;;;5064209;28;20440;-66
2024/03/07 08:17:31;;;;;;;39.70;27.90;;;;;;;;;;5076007;28;20943;-67
2024/03/07 08:19:58;;;;;;;41.17;26.90;;;;;;;;;;5070804;28;20558;-67
2024/03/07 08:22:26;;;;;;;38.13;25.83;;;;;;;;;;5077627;28;20452;-67
2024/03/07 08:24:52;;;;;;;40.93;27.33;;;;;;;;;;5076958;28;20452;-67
2024/03/07 08:27:19;;;;;;;38.10;25.60;;;;;;;;;;5080327;28;20482;-65
2024/03/07 08:29:45;;;;;;;37.13;28.20;;;;;;;;;;5070659;28;20520;-64
2024/03/07 08:32:12;;;;;;;35.97;26.30;;;;;;;;;;5071800;28;20448;-65
2024/03/07 08:34:38;;;;;;;39.67;26.13;;;;;;;;;;5079257;28;20443;-69
2024/03/07 08:37:04;;;;;;;42.47;27.43;;;;;;;;;;5078265;28;20487;-68
2024/03/07 08:39:32;;;;;;;39.50;27.03;;;;;;;;;;5078867;28;20483;-66
2024/03/07 08:41:59;;;;;;;37.47;27.63;;;;;;;;;;5082318;28;20447;-66
2024/03/07 08:44:25;;;;;;;39.40;29.03;;;;;;;;;;5082992;28;20466;-66
2024/03/07 08:46:52;;;;;;;40.53;29.03;;;;;;;;;;5071924;28;20444;-65
2024/03/07 08:49:18;;;;;;;43.80;29.30;;;;;;;;;;5070635;28;20484;-67
2024/03/07 08:51:44;;;;;;;43.50;30.10;;;;;;;;;;5076918;28;20495;-66
2024/03/07 08:54:11;;;;;;;42.53;29.50;;;;;;;;;;5079262;28;20921;-68
2024/03/07 08:56:39;;;;;;;47.40;29.53;;;;;;;;;;5071521;28;20565;-67
2024/03/07 08:59:05;;;;;;;46.27;29.97;;;;;;;;;;5073741;28;20899;-69
2024/03/07 09:01:32;;;;;;;45.50;30.67;;;;;;;;;;5080013;28;20492;-65
2024/03/07 09:03:59;;;;;;;46.17;31.60;;;;;;;;;;5079467;28;20502;-69
2024/03/07 09:06:25;;;;;;;43.30;28.50;;;;;;;;;;5078090;28;20465;-67
2024/03/07 09:08:52;;;;;;;48.47;31.73;;;;;;;;;;5086257;28;20464;-65
2024/03/07 09:11:18;;;;;;;46.43;30.37;;;;;;;;;;5070206;28;20507;-68
2024/03/07 09:13:46;;;;;;;46.47;31.03;;;;;;;;;;5083833;28;20480;-65
2024/03/07 09:16:12;;;;;;;53.03;32.23;;;;;;;;;;5083828;28;20480;-68
2024/03/07 09:18:39;;;;;;;42.43;29.37;;;;;;;;;;5076849;28;20985;-67
2024/03/07 09:21:06;;;;;;;47.10;30.90;;;;;;;;;;5074299;28;20452;-67
2024/03/07 09:23:32;;;;;;;55.90;31.00;;;;;;;;;;5079080;28;20456;-67
2024/03/07 09:25:59;;;;;;;56.33;31.33;;;;;;;;;;5081270;28;20448;-64
2024/03/07 09:28:25;;;;;;;51.67;31.43;;;;;;;;;;5078798;28;20456;-68
2024/03/07 09:30:53;;;;;;;50.20;31.67;;;;;;;;;;5078035;28;20440;-69
2024/03/07 09:33:19;;;;;;;55.73;32.90;;;;;;;;;;5077575;28;20478;-68
2024/03/07 09:35:46;;;;;;;55.33;34.17;;;;;;;;;;5077676;28;20514;-66
2024/03/07 09:38:12;;;;;;;56.47;32.47;;;;;;;;;;5076552;28;20462;-66
2024/03/07 09:40:40;;;;;;;51.53;32.80;;;;;;;;;;5079862;28;20980;-66
2024/03/07 09:43:10;;;;;;;48.87;31.67;;;;;;;;;;5077355;28;20452;-66
2024/03/07 09:45:38;;;;;;;52.80;32.00;;;;;;;;;;5077326;28;20519;-67
2024/03/07 09:48:08;;;;;;;46.53;31.03;;;;;;;;;;5077661;28;21055;-68
2024/03/07 09:50:36;;;;;;;58.90;32.40;;;;;;;;;;5078680;28;20470;-66
2024/03/07 09:53:04;;;;;;;57.83;31.83;;;;;;;;;;5069801;28;20968;-67
2024/03/07 09:55:31;;;;;;;61.80;34.00;;;;;;;;;;5079758;28;20491;-68
2024/03/07 09:57:59;;;;;;;65.60;35.30;;;;;;;;;;5084074;28;20482;-67
2024/03/07 10:00:26;;;;;;;69.70;34.50;;;;;;;;;;5072337;28;20456;-67
2024/03/07 10:02:55;;;;;;;74.17;35.43;;;;;;;;;;5074600;28;20444;-66
2024/03/07 10:05:23;;;;;;;71.67;36.50;;;;;;;;;;5082111;28;20536;-67
2024/03/07 10:07:49;;;;;;;63.87;34.97;;;;;;;;;;5078915;28;20452;-66
2024/03/07 10:10:16;;;;;;;65.67;34.50;;;;;;;;;;5078628;28;20513;-66
2024/03/07 10:12:42;;;;;;;69.33;36.87;;;;;;;;;;5080233;28;20447;-65
2024/03/07 10:15:12;;;;;;;76.00;37.90;;;;;;;;;;5078614;28;20436;-67
2024/03/07 10:17:39;;;;;;;63.37;35.97;;;;;;;;;;5078231;28;20543;-67
2024/03/07 10:20:09;;;;;;;72.23;35.60;;;;;;;;;;5072650;28;20459;-65
2024/03/07 10:22:37;;;;;;;66.00;36.30;;;;;;;;;;5081290;28;20459;-68
2024/03/07 10:25:04;;;;;;;62.57;36.67;;;;;;;;;;5078492;28;20467;-65
2024/03/07 10:27:31;;;;;;;77.63;38.80;;;;;;;;;;5077433;28;20782;-69
2024/03/07 10:29:57;;;;;;;64.00;36.83;;;;;;;;;;5077690;28;20448;-63
2024/03/07 10:32:25;;;;;;;73.77;37.13;;;;;;;;;;5077870;28;20474;-63
2024/03/07 10:34:51;;;;;;;63.70;35.20;;;;;;;;;;5078027;28;20448;-63
2024/03/07 10:37:20;;;;;;;71.13;35.97;;;;;;;;;;5077931;28;20527;-69
2024/03/07 10:39:49;;;;;;;70.70;38.90;;;;;;;;;;5075163;28;21043;-68
2024/03/07 10:42:16;;;;;;;60.80;33.70;;;;;;;;;;5077896;28;21152;-68
2024/03/07 10:44:44;;;;;;;64.87;34.23;;;;;;;;;;5080664;28;20529;-65
2024/03/07 10:47:12;;;;;;;61.90;36.77;;;;;;;;;;5078254;28;20478;-66
2024/03/07 10:49:43;;;;;;;69.00;33.93;;;;;;;;;;5077084;28;20455;-66
2024/03/07 10:52:19;;;;;;;64.60;36.87;;;;;;;;;;5077496;28;20624;-68
2024/03/07 10:54:52;;;;;;;63.53;33.53;;;;;;;;;;5076001;28;20840;-68
2024/03/07 10:57:23;;;;;;;68.37;34.47;;;;;;;;;;5077811;28;21250;-69
2024/03/07 10:59:51;;;;;;;62.27;33.43;;;;;;;;;;5076961;28;20463;-67
2024/03/07 11:02:22;;;;;;;62.13;35.50;;;;;;;;;;5075603;28;20491;-67
2024/03/07 11:04:49;;;;;;;63.43;36.30;;;;;;;;;;5076844;28;20460;-69
2024/03/07 11:07:16;;;;;;;64.13;35.57;;;;;;;;;;5072400;28;20444;-69
2024/03/07 11:09:46;;;;;;;60.93;35.80;;;;;;;;;;5076700;28;20460;-70
2024/03/07 11:12:15;;;;;;;61.97;34.10;;;;;;;;;;5075739;28;20448;-69
2024/03/07 11:14:42;;;;;;;67.50;33.77;;;;;;;;;;5076236;28;20462;-67
2024/03/07 11:17:09;;;;;;;63.73;33.10;;;;;;;;;;5076956;28;20480;-67
2024/03/07 11:19:38;;;;;;;66.73;35.10;;;;;;;;;;5074243;28;20451;-66
2024/03/07 11:22:15;;;;;;;66.33;34.43;;;;;;;;;;5076016;28;20455;-66
2024/03/07 11:24:42;;;;;;;56.53;32.67;;;;;;;;;;5076831;28;20550;-67
2024/03/07 11:27:10;;;;;;;66.50;32.43;;;;;;;;;;5075112;28;20464;-67
2024/03/07 11:29:44;;;;;;;53.03;30.00;;;;;;;;;;5072180;28;20549;-67
2024/03/07 11:32:13;;;;;;;53.73;30.13;;;;;;;;;;5073433;28;20609;-67
2024/03/07 11:34:41;;;;;;;53.90;31.87;;;;;;;;;;5074490;28;20458;-67
2024/03/07 11:37:17;;;;;;;50.53;28.73;;;;;;;;;;5073880;28;20491;-67
2024/03/07 11:39:43;;;;;;;56.67;32.53;;;;;;;;;;5076468;28;20494;-67
2024/03/07 11:42:10;;;;;;;53.30;29.97;;;;;;;;;;5077472;28;20448;-67
2024/03/07 11:44:39;;;;;;;50.40;29.47;;;;;;;;;;5075124;28;20455;-66
2024/03/07 11:47:09;;;;;;;52.83;29.00;;;;;;;;;;5076953;28;20444;-66
2024/03/07 11:49:36;;;;;;;46.73;28.37;;;;;;;;;;5076401;28;20527;-67
2024/03/07 11:52:04;;;;;;;48.43;27.90;;;;;;;;;;5067453;28;20865;-66
2024/03/07 11:54:31;;;;;;;53.00;31.07;;;;;;;;;;5072148;28;20463;-67
2024/03/07 11:56:57;;;;;;;47.23;28.80;;;;;;;;;;5075731;28;21263;-67
2024/03/07 11:59:24;;;;;;;49.97;29.37;;;;;;;;;;5076604;28;20484;-66
2024/03/07 12:01:50;;;;;;;49.13;28.47;;;;;;;;;;5084553;28;20478;-67
2024/03/07 12:04:18;;;;;;;51.57;28.10;;;;;;;;;;5076602;28;20444;-66
2024/03/07 12:06:51;;;;;;;49.57;27.73;;;;;;;;;;5074520;28;20533;-67
2024/03/07 12:09:23;;;;;;;54.00;32.20;;;;;;;;;;5076960;28;20456;-67
2024/03/07 12:11:52;;;;;;;54.50;29.33;;;;;;;;;;5077395;28;20461;-67
2024/03/07 12:14:19;;;;;;;49.83;28.20;;;;;;;;;;5080370;28;20448;-67
2024/03/07 12:16:45;;;;;;;49.83;30.60;;;;;;;;;;5080485;28;20506;-67
2024/03/07 12:19:12;;;;;;;51.80;28.73;;;;;;;;;;5080489;28;20517;-67
2024/03/07 12:21:40;;;;;;;46.53;29.13;;;;;;;;;;5078916;28;20460;-67
2024/03/07 12:24:12;;;;;;;45.60;28.33;;;;;;;;;;5080430;28;20452;-67
2024/03/07 12:26:38;;;;;;;43.30;28.17;;;;;;;;;;5075639;28;20825;-67
2024/03/07 12:29:11;;;;;;;37.17;24.93;;;;;;;;;;5081203;28;20502;-68
2024/03/07 12:31:38;;;;;;;42.90;26.87;;;;;;;;;;5078554;28;20486;-67
2024/03/07 12:34:05;;;;;;;41.60;26.23;;;;;;;;;;5079956;28;20478;-67
2024/03/07 12:36:34;;;;;;;43.00;26.50;;;;;;;;;;5079970;28;20487;-68
2024/03/07 12:39:09;;;;;;;45.77;29.63;;;;;;;;;;5079793;28;20451;-67
2024/03/07 12:41:35;;;;;;;48.13;27.20;;;;;;;;;;5080345;28;20523;-67
2024/03/07 12:44:02;;;;;;;45.40;27.70;;;;;;;;;;5080026;28;20463;-67
2024/03/07 12:46:29;;;;;;;46.03;25.80;;;;;;;;;;5075162;28;20452;-68
2024/03/07 12:48:58;;;;;;;44.97;28.03;;;;;;;;;;5077271;28;20968;-67
2024/03/07 12:51:24;;;;;;;43.87;26.40;;;;;;;;;;5073873;28;20519;-67
2024/03/07 12:53:51;;;;;;;45.90;28.47;;;;;;;;;;5079676;28;20440;-68
2024/03/07 12:56:19;;;;;;;46.47;25.87;;;;;;;;;;5079379;28;20448;-67
2024/03/07 12:58:45;;;;;;;39.93;24.87;;;;;;;;;;5079363;28;20495;-67
2024/03/07 13:01:13;;;;;;;36.13;24.10;;;;;;;;;;5079351;28;20470;-67
2024/03/07 13:03:39;;;;;;;40.67;25.20;;;;;;;;;;5079001;28;20518;-67
2024/03/07 13:06:06;;;;;;;43.93;25.90;;;;;;;;;;5079291;28;20490;-67
2024/03/07 13:08:32;;;;;;;37.13;23.27;;;;;;;;;;5079227;28;20476;-67
2024/03/07 13:10:59;;;;;;;39.40;22.40;;;;;;;;;;5079551;28;20440;-67
2024/03/07 13:13:27;;;;;;;39.40;24.07;;;;;;;;;;5079214;28;20456;-66
2024/03/07 13:15:54;;;;;;;43.03;25.70;;;;;;;;;;5086031;28;21043;-66
2024/03/07 13:18:21;;;;;;;39.27;25.80;;;;;;;;;;5078723;28;20486;-67
2024/03/07 13:20:48;;;;;;;42.03;24.10;;;;;;;;;;5078528;28;20484;-67
2024/03/07 13:23:14;;;;;;;50.73;27.80;;;;;;;;;;5079448;28;20448;-67
2024/03/07 13:25:41;;;;;;;43.60;26.10;;;;;;;;;;5078042;28;20996;-67
2024/03/07 13:28:09;;;;;;;41.00;24.20;;;;;;;;;;5074933;28;21003;-67
2024/03/07 13:30:36;;;;;;;43.13;25.13;;;;;;;;;;5078599;28;20458;-67
2024/03/07 13:33:04;;;;;;;47.20;27.07;;;;;;;;;;5073412;28;20471;-67
2024/03/07 13:35:30;;;;;;;45.70;25.50;;;;;;;;;;5078337;28;20456;-67
2024/03/07 13:37:57;;;;;;;41.90;24.47;;;;;;;;;;5078537;28;21192;-67
2024/03/07 13:40:24;;;;;;;38.90;24.63;;;;;;;;;;5072205;28;21022;-67
2024/03/07 13:42:52;;;;;;;43.53;25.27;;;;;;;;;;5078804;28;21124;-67
2024/03/07 13:45:20;;;;;;;40.67;23.60;;;;;;;;;;5076409;28;20458;-67
2024/03/07 13:47:49;;;;;;;44.23;26.10;;;;;;;;;;5076177;28;20446;-67
2024/03/07 13:50:16;;;;;;;42.90;25.17;;;;;;;;;;5079776;28;20527;-67
2024/03/07 13:53:04;;;;;;;45.23;24.77;;;;;;;;;;5078614;28;20470;-67
2024/03/07 13:55:30;;;;;;;40.27;24.60;;;;;;;;;;5072337;28;20470;-67
2024/03/07 13:57:59;;;;;;;44.30;25.30;;;;;;;;;;5077854;28;20495;-67
2024/03/07 14:00:29;;;;;;;50.53;26.67;;;;;;;;;;5082675;28;20458;-67
2024/03/07 14:03:19;;;;;;;48.77;26.80;;;;;;;;;;5075368;28;20501;-67
2024/03/07 14:05:59;;;;;;;43.37;26.50;;;;;;;;;;5077353;28;20456;-67
2024/03/07 14:08:47;;;;;;;40.77;23.60;;;;;;;;;;5061467;28;20480;-67
2024/03/07 14:11:41;;;;;;;42.50;25.90;;;;;;;;;;5078195;28;20446;-67
2024/03/07 14:14:21;;;;;;;47.30;25.33;;;;;;;;;;5077391;28;20534;-67
2024/03/07 14:17:04;;;;;;;43.60;27.13;;;;;;;;;;5083412;28;20486;-67
2024/03/07 14:20:19;;;;;;;36.90;23.27;;;;;;;;;;5076236;28;21020;-67